Time;durP1;ratioP1;P1;durP2;ratioP2;P2;SDS_P1;SDS_P2;PMS_P1;PMS_P2;Temp;Humidity;BMP_temperature;BMP_pressure;BME280_temperature;BME280_humidity;BME280_pressure;Samples;Min_cycle;Max_cycle;Signal;HPM_P1;HPM_P2
2021/05/11 00:01:53;;;;;;;9.45;5.53;;;14.20;93.60;;;;;;5102162;28;20051;-67
2021/05/11 00:04:19;;;;;;;9.40;5.57;;;14.10;93.70;;;;;;5094247;28;20036;-67
2021/05/11 00:06:45;;;;;;;10.20;5.93;;;14.10;93.90;;;;;;5101238;28;20031;-67
2021/05/11 00:09:11;;;;;;;7.53;5.80;;;14.00;94.10;;;;;;5099915;28;20410;-67
2021/05/11 00:11:37;;;;;;;7.97;5.65;;;14.00;94.30;;;;;;5080470;28;20081;-67
2021/05/11 00:14:06;;;;;;;8.13;6.38;;;14.00;94.30;;;;;;5091392;28;20340;-67
2021/05/11 00:16:32;;;;;;;9.52;6.35;;;13.90;94.40;;;;;;5093354;28;20519;-67
2021/05/11 00:19:00;;;;;;;9.27;6.68;;;13.90;94.50;;;;;;5100312;28;20054;-67
2021/05/11 00:21:26;;;;;;;9.68;8.20;;;13.90;94.70;;;;;;5091035;28;20031;-67
2021/05/11 00:23:52;;;;;;;7.95;6.07;;;13.90;94.80;;;;;;5096883;28;20404;-67
2021/05/11 00:26:18;;;;;;;11.23;6.22;;;13.80;94.80;;;;;;5094040;28;20473;-67
2021/05/11 00:28:43;;;;;;;9.88;6.28;;;13.80;95.00;;;;;;5095231;28;20032;-67
2021/05/11 00:31:09;;;;;;;14.13;6.72;;;13.80;95.10;;;;;;5093365;28;20036;-67
2021/05/11 00:33:35;;;;;;;11.10;6.00;;;13.80;95.10;;;;;;5101474;28;20036;-67
2021/05/11 00:36:01;;;;;;;15.98;6.30;;;13.70;95.10;;;;;;5087648;28;20488;-67
2021/05/11 00:38:28;;;;;;;12.40;6.78;;;13.70;95.10;;;;;;5096330;28;20043;-67
2021/05/11 00:40:54;;;;;;;16.30;6.60;;;13.70;95.20;;;;;;5093283;28;20071;-67
2021/05/11 00:43:20;;;;;;;12.70;5.97;;;13.70;95.40;;;;;;5096781;28;20448;-67
2021/05/11 00:45:46;;;;;;;10.95;5.57;;;13.70;95.40;;;;;;5083677;28;20075;-67
2021/05/11 00:48:12;;;;;;;9.55;5.20;;;13.70;95.60;;;;;;5100363;28;20043;-67
2021/05/11 00:50:37;;;;;;;12.20;6.10;;;13.60;95.70;;;;;;5097474;28;20109;-67
2021/05/11 00:53:04;;;;;;;12.82;5.80;;;13.60;95.80;;;;;;5090058;28;20073;-67
2021/05/11 00:55:30;;;;;;;13.93;5.90;;;13.60;95.80;;;;;;5099712;28;20047;-67
2021/05/11 00:57:57;;;;;;;9.93;5.40;;;13.60;95.80;;;;;;5096281;28;20044;-67
2021/05/11 01:00:23;;;;;;;11.88;5.72;;;13.50;96.10;;;;;;5100589;28;20058;-67
2021/05/11 01:02:49;;;;;;;12.40;6.00;;;13.50;95.90;;;;;;5096645;28;20032;-67
2021/05/11 01:05:16;;;;;;;13.10;5.38;;;13.50;96.00;;;;;;5079964;28;20133;-67
2021/05/11 01:07:45;;;;;;;14.45;6.35;;;13.50;95.80;;;;;;5089667;28;20493;-67
2021/05/11 01:10:11;;;;;;;9.82;5.68;;;13.50;95.80;;;;;;5099296;28;20036;-67
2021/05/11 01:12:37;;;;;;;13.00;6.45;;;13.50;95.80;;;;;;5097531;28;20093;-67
2021/05/11 01:15:03;;;;;;;14.02;6.50;;;13.50;95.90;;;;;;5102656;28;20032;-67
2021/05/11 01:17:33;;;;;;;12.00;5.82;;;13.40;96.10;;;;;;5095091;28;20032;-67
2021/05/11 01:20:03;;;;;;;12.05;5.88;;;13.40;96.20;;;;;;5089048;28;20060;-67
2021/05/11 01:25:02;;;;;;;12.05;6.90;;;13.40;96.40;;;;;;5101638;28;20494;-67
2021/05/11 01:57:35;;;;;;;16.88;8.82;;;13.30;97.00;;;;;;5102646;28;20040;-66
2021/05/11 02:24:48;;;;;;;14.55;10.52;;;12.90;99.50;;;;;;5073695;28;20187;-63
2021/05/11 02:27:13;;;;;;;17.48;12.02;;;12.90;99.80;;;;;;5083821;28;20143;-63
2021/05/11 02:29:39;;;;;;;14.23;10.20;;;12.90;99.90;;;;;;5086112;28;20039;-63
2021/05/11 02:32:05;;;;;;;14.88;10.35;;;12.90;99.90;;;;;;5102472;28;20464;-62
2021/05/11 02:34:31;;;;;;;13.32;9.27;;;12.90;99.90;;;;;;5101068;28;20097;-62
2021/05/11 02:36:57;;;;;;;11.48;9.18;;;12.90;99.90;;;;;;5088236;28;20475;-62
2021/05/11 02:39:22;;;;;;;16.35;9.93;;;12.90;99.90;;;;;;5101620;28;20047;-62
2021/05/11 02:41:48;;;;;;;11.48;8.38;;;12.90;99.90;;;;;;5100777;28;20047;-62
2021/05/11 02:44:17;;;;;;;15.15;9.57;;;12.80;99.90;;;;;;5102113;28;20057;-62
2021/05/11 02:46:43;;;;;;;15.52;10.73;;;12.90;99.90;;;;;;5095645;28;20080;-63
2021/05/11 02:49:09;;;;;;;13.45;9.73;;;12.90;99.90;;;;;;5104335;28;20036;-63
2021/05/11 02:51:35;;;;;;;13.88;10.60;;;12.80;99.90;;;;;;5091607;28;20335;-62
2021/05/11 02:54:00;;;;;;;12.65;10.10;;;12.80;99.90;;;;;;5098578;28;20539;-62
2021/05/11 02:56:27;;;;;;;15.48;9.30;;;12.80;99.90;;;;;;5091681;28;20095;-62
2021/05/11 02:58:53;;;;;;;12.10;7.88;;;12.80;99.90;;;;;;5103475;28;20048;-62
2021/05/11 03:01:19;;;;;;;10.00;7.95;;;12.80;99.90;;;;;;5090292;28;20052;-62
2021/05/11 03:03:45;;;;;;;8.95;7.35;;;12.80;99.90;;;;;;5100375;28;20050;-62
2021/05/11 03:06:11;;;;;;;15.07;8.40;;;12.80;99.90;;;;;;5095999;28;20406;-63
2021/05/11 03:08:41;;;;;;;12.30;8.68;;;12.80;99.90;;;;;;5104777;28;20455;-62
2021/05/11 03:11:07;;;;;;;14.32;7.93;;;12.70;99.90;;;;;;5099928;28;20040;-62
2021/05/11 03:13:33;;;;;;;9.90;8.20;;;12.80;99.90;;;;;;5092830;28;20564;-62
2021/05/11 03:15:58;;;;;;;12.35;7.57;;;12.80;99.90;;;;;;5104496;28;20031;-62
2021/05/11 03:18:24;;;;;;;11.48;8.30;;;12.70;99.90;;;;;;5097825;28;20043;-62
2021/05/11 03:20:50;;;;;;;12.13;7.32;;;12.70;99.90;;;;;;5098813;28;20032;-62
2021/05/11 03:23:16;;;;;;;8.40;6.22;;;12.70;99.90;;;;;;5092085;28;21195;-63
2021/05/11 03:25:41;;;;;;;13.02;6.78;;;12.70;99.90;;;;;;5105867;28;20065;-62
2021/05/11 03:28:07;;;;;;;7.40;6.70;;;12.70;99.90;;;;;;5089487;28;20506;-63
2021/05/11 03:30:33;;;;;;;9.32;6.28;;;12.70;99.90;;;;;;5100154;28;20043;-63
2021/05/11 03:32:59;;;;;;;10.10;6.50;;;12.70;99.90;;;;;;5090463;28;20031;-62
2021/05/11 03:35:24;;;;;;;11.52;7.38;;;12.60;99.90;;;;;;5099937;28;20445;-63
2021/05/11 03:37:52;;;;;;;8.15;5.60;;;12.70;99.90;;;;;;5095696;28;20388;-63
2021/05/11 03:40:18;;;;;;;6.57;5.65;;;12.60;99.90;;;;;;5097302;28;20039;-63
2021/05/11 03:42:57;;;;;;;5.38;4.10;;;12.60;99.90;;;;;;5092841;28;20028;-63
2021/05/11 03:45:30;;;;;;;3.40;2.97;;;12.60;99.90;;;;;;5102003;28;20031;-63
2021/05/11 03:47:55;;;;;;;5.88;3.17;;;12.60;99.90;;;;;;5089133;28;20399;-63
2021/05/11 03:50:22;;;;;;;5.10;2.45;;;12.60;99.90;;;;;;5102716;28;20040;-63
2021/05/11 03:52:47;;;;;;;3.90;2.50;;;12.60;99.90;;;;;;5103350;28;20514;-63
2021/05/11 03:55:13;;;;;;;2.95;2.00;;;12.60;99.90;;;;;;5095252;28;20051;-63
2021/05/11 03:57:40;;;;;;;3.42;1.88;;;12.60;99.90;;;;;;5094216;28;20040;-63
2021/05/11 04:00:07;;;;;;;3.80;1.88;;;12.60;99.90;;;;;;5092188;28;20067;-63
2021/05/11 04:02:35;;;;;;;2.78;1.73;;;12.60;99.90;;;;;;5099803;28;20441;-63
2021/05/11 04:05:07;;;;;;;3.10;1.98;;;12.50;99.90;;;;;;5093295;28;20043;-63
2021/05/11 04:07:33;;;;;;;3.60;2.47;;;12.50;99.90;;;;;;5103179;28;20042;-63
2021/05/11 04:10:01;;;;;;;5.53;2.38;;;12.50;99.90;;;;;;5093641;28;20479;-63
2021/05/11 04:17:44;;;;;;;4.78;2.20;;;12.40;99.90;;;;;;5095117;28;20505;-63
2021/05/11 04:20:12;;;;;;;3.80;2.35;;;12.40;99.90;;;;;;5094513;28;20036;-64
2021/05/11 04:22:38;;;;;;;3.83;2.17;;;12.50;99.90;;;;;;5101787;28;20039;-64
2021/05/11 04:25:05;;;;;;;4.00;1.60;;;12.40;99.90;;;;;;5092830;28;20051;-64
2021/05/11 04:27:31;;;;;;;4.10;1.42;;;12.40;99.90;;;;;;5097833;28;20479;-64
2021/05/11 04:30:00;;;;;;;4.22;2.20;;;12.40;99.90;;;;;;5094358;28;20148;-64
2021/05/11 04:32:32;;;;;;;2.35;1.75;;;12.40;99.90;;;;;;5097429;28;20040;-64
2021/05/11 04:34:58;;;;;;;24.42;21.08;;;12.40;99.90;;;;;;5096320;28;20470;-64
2021/05/11 04:37:24;;;;;;;312.95;279.90;;;12.40;99.90;;;;;;5099282;28;20145;-64
2021/05/11 04:39:52;;;;;;;15.45;11.57;;;12.40;99.90;;;;;;5096982;28;20055;-64
2021/05/11 04:42:17;;;;;;;10.95;9.05;;;12.50;99.90;;;;;;5100154;28;20142;-64
2021/05/11 04:44:43;;;;;;;4.35;2.67;;;12.40;99.90;;;;;;5102563;28;20115;-64
2021/05/11 04:47:14;;;;;;;3.60;1.92;;;12.50;99.90;;;;;;5101503;28;20480;-64
2021/05/11 04:49:44;;;;;;;4.72;2.00;;;12.50;99.90;;;;;;5104988;28;20050;-64
2021/05/11 04:52:10;;;;;;;3.80;1.77;;;12.40;99.90;;;;;;5097375;28;20052;-65
2021/05/11 04:54:36;;;;;;;4.72;2.20;;;12.40;99.90;;;;;;5104669;28;20044;-65
2021/05/11 04:57:02;;;;;;;5.53;2.53;;;12.40;99.90;;;;;;5100300;28;20051;-65
2021/05/11 04:59:28;;;;;;;4.53;2.10;;;12.40;99.90;;;;;;5103782;28;20047;-65
2021/05/11 05:01:57;;;;;;;6.63;2.30;;;12.40;99.90;;;;;;5100309;28;20073;-65
2021/05/11 05:04:23;;;;;;;3.47;1.85;;;12.40;99.90;;;;;;5104324;28;20040;-65
2021/05/11 05:06:48;;;;;;;6.15;2.42;;;12.40;99.90;;;;;;5102932;28;20050;-65
2021/05/11 05:09:14;;;;;;;4.05;2.38;;;12.40;99.90;;;;;;5108403;28;20088;-65
2021/05/11 05:11:41;;;;;;;4.50;2.95;;;12.40;99.90;;;;;;5095904;27;20094;-65
2021/05/11 05:14:08;;;;;;;4.97;2.83;;;12.40;99.90;;;;;;5104509;28;20448;-65
2021/05/11 05:16:35;;;;;;;5.85;2.78;;;12.40;99.90;;;;;;5098652;28;20138;-65
2021/05/11 05:19:05;;;;;;;5.82;3.20;;;12.50;99.90;;;;;;5100024;28;20052;-65
2021/05/11 05:21:31;;;;;;;4.22;3.42;;;12.50;99.90;;;;;;5095783;28;20502;-65
2021/05/11 05:24:33;;;;;;;6.00;2.97;;;12.50;99.90;;;;;;5108602;28;20211;-65
2021/05/11 05:26:53;;;;;;;4.90;3.17;;;12.50;99.90;;;;;;5097203;28;20052;-64
2021/05/11 05:29:19;;;;;;;7.55;3.45;;;12.50;99.90;;;;;;5101836;28;20468;-64
2021/05/11 05:31:45;;;;;;;5.32;3.58;;;12.50;99.90;;;;;;5100383;28;20275;-64
2021/05/11 05:34:11;;;;;;;3.60;3.03;;;12.60;99.90;;;;;;5102997;28;20460;-64
2021/05/11 05:36:37;;;;;;;3.83;3.28;;;12.60;99.90;;;;;;5102478;28;20115;-66
2021/05/11 05:39:03;;;;;;;7.05;3.53;;;12.70;99.90;;;;;;5097547;28;20092;-64
2021/05/11 05:41:31;;;;;;;6.88;3.72;;;12.70;99.90;;;;;;5100760;28;20417;-65
2021/05/11 05:43:59;;;;;;;3.00;2.00;;;12.70;99.90;;;;;;5100952;28;20043;-64
2021/05/11 05:46:25;;;;;;;4.75;2.47;;;12.70;99.90;;;;;;5104167;28;20131;-64
2021/05/11 05:48:52;;;;;;;4.78;3.10;;;12.70;99.90;;;;;;5100482;28;20079;-66
2021/05/11 05:51:19;;;;;;;4.38;2.80;;;12.90;99.90;;;;;;5105527;28;20040;-64
2021/05/11 05:53:46;;;;;;;5.97;3.03;;;12.90;99.90;;;;;;5100833;28;20092;-64
2021/05/11 05:56:16;;;;;;;6.47;3.30;;;13.00;99.90;;;;;;5103693;28;20437;-64
2021/05/11 05:58:43;;;;;;;6.25;4.25;;;13.00;99.90;;;;;;5101036;28;20157;-64
2021/05/11 06:01:10;;;;;;;4.47;2.80;;;13.10;99.90;;;;;;5106194;28;20150;-64
2021/05/11 06:04:04;;;;;;;6.13;3.95;;;13.10;99.90;;;;;;5098203;28;20047;-65
2021/05/11 06:06:48;;;;;;;5.82;3.65;;;13.10;99.90;;;;;;5102890;28;20043;-65
2021/05/11 06:09:20;;;;;;;7.38;3.55;;;13.20;99.90;;;;;;5100315;28;20220;-65
2021/05/11 06:11:54;;;;;;;5.40;3.15;;;13.20;99.90;;;;;;5107924;28;20101;-65
2021/05/11 06:17:16;;;;;;;5.13;2.92;;;13.20;99.90;;;;;;5099107;28;20127;-65
2021/05/11 06:19:52;;;;;;;7.25;3.22;;;13.30;99.90;;;;;;5088955;28;20067;-65
2021/05/11 06:22:18;;;;;;;6.40;3.35;;;13.30;99.90;;;;;;5103170;28;20139;-65
2021/05/11 06:24:45;;;;;;;6.07;2.90;;;13.30;99.90;;;;;;5093035;28;20074;-65
2021/05/11 06:27:12;;;;;;;5.18;3.97;;;13.30;99.90;;;;;;5099309;28;20091;-65
2021/05/11 06:29:40;;;;;;;5.45;3.53;;;13.30;99.90;;;;;;5099523;28;20044;-65
2021/05/11 06:32:07;;;;;;;4.85;3.20;;;13.30;99.90;;;;;;5084231;28;20044;-65
2021/05/11 06:34:35;;;;;;;4.75;2.78;;;13.30;99.90;;;;;;5098682;28;20055;-65
2021/05/11 06:37:05;;;;;;;4.63;3.10;;;13.40;99.90;;;;;;5102430;28;20091;-65
2021/05/11 06:39:31;;;;;;;4.53;3.58;;;13.40;99.90;;;;;;5098699;28;20044;-65
2021/05/11 06:42:17;;;;;;;;;;;13.40;99.90;;;;;;5103088;28;20044;-65
2021/05/11 06:47:53;;;;;;;3.78;2.30;;;13.40;99.90;;;;;;5102127;28;20430;-65
2021/05/11 06:52:41;;;;;;;2.58;2.00;;;13.50;99.90;;;;;;5097409;28;20063;-65
2021/05/11 06:53:12;;;;;;;2.45;2.03;;;13.50;99.90;;;;;;5097329;28;20075;-65
2021/05/11 06:55:41;;;;;;;3.45;2.15;;;13.50;99.90;;;;;;5098447;28;20046;-65
2021/05/11 06:58:08;;;;;;;2.80;2.10;;;13.50;99.90;;;;;;5100004;28;20256;-65
2021/05/11 07:00:34;;;;;;;3.25;2.33;;;13.50;99.90;;;;;;5099991;28;20049;-65
2021/05/11 07:03:00;;;;;;;3.08;2.75;;;13.50;99.90;;;;;;5106031;28;20058;-65
2021/05/11 07:05:30;;;;;;;3.28;2.50;;;13.50;99.90;;;;;;5093476;28;20036;-66
2021/05/11 07:10:37;;;;;;;2.88;2.35;;;13.60;99.90;;;;;;5097149;28;20109;-66
2021/05/11 07:15:32;;;;;;;9.20;8.25;;;13.60;99.90;;;;;;5099714;28;20403;-66
2021/05/11 07:18:06;;;;;;;2.72;2.50;;;13.60;99.90;;;;;;5098923;28;20062;-66
2021/05/11 07:20:32;;;;;;;2.20;1.80;;;13.60;99.90;;;;;;5100763;28;20036;-66
2021/05/11 07:22:57;;;;;;;1.98;1.60;;;13.70;99.90;;;;;;5097715;28;20114;-64
2021/05/11 07:25:26;;;;;;;3.10;1.65;;;13.70;99.90;;;;;;5097093;28;20548;-64
2021/05/11 07:30:35;;;;;;;1.60;1.10;;;13.70;99.90;;;;;;5103882;28;20392;-65
2021/05/11 07:33:05;;;;;;;2.67;1.38;;;13.80;99.90;;;;;;5096346;28;20030;-66
2021/05/11 07:35:31;;;;;;;2.30;1.20;;;13.80;99.90;;;;;;5104403;28;20036;-67
2021/05/11 07:37:57;;;;;;;3.25;1.23;;;13.90;99.90;;;;;;5099050;28;20042;-64
2021/05/11 07:40:23;;;;;;;1.85;1.25;;;13.80;99.90;;;;;;5100226;28;20039;-66
2021/05/11 07:42:49;;;;;;;2.55;1.20;;;13.90;99.90;;;;;;5096891;28;20139;-66
2021/05/11 08:02:23;;;;;;;3.10;1.70;;;14.00;99.90;;;;;;5074086;28;20040;-66
2021/05/11 08:05:18;;;;;;;2.35;1.73;;;14.10;99.90;;;;;;5096794;28;20051;-65
2021/05/11 08:15:52;;;;;;;4.90;2.40;;;14.00;99.20;;;;;;5099928;28;20468;-65
2021/05/11 08:28:57;;;;;;;2.85;2.47;;;14.30;99.90;;;;;;5096440;28;20040;-66
2021/05/11 08:31:23;;;;;;;4.25;2.80;;;14.40;99.90;;;;;;5104137;28;20039;-66
2021/05/11 08:33:48;;;;;;;3.05;2.85;;;14.50;99.90;;;;;;5098409;28;20055;-66
2021/05/11 08:36:14;;;;;;;4.53;3.00;;;14.50;99.80;;;;;;5094858;28;20059;-66
2021/05/11 08:38:40;;;;;;;3.70;3.25;;;14.60;99.90;;;;;;5101674;28;20104;-64
2021/05/11 08:41:06;;;;;;;4.32;3.22;;;14.60;99.40;;;;;;5094478;28;20052;-67
2021/05/11 08:43:41;;;;;;;4.32;2.72;;;14.70;99.90;;;;;;5091054;28;20453;-66
2021/05/11 08:46:08;;;;;;;3.88;3.25;;;14.80;99.90;;;;;;5095625;28;20038;-67
2021/05/11 08:48:35;;;;;;;4.75;3.42;;;14.80;99.80;;;;;;5104154;28;20043;-65
2021/05/11 08:51:19;;;;;;;3.58;3.28;;;14.90;99.90;;;;;;5097462;28;20055;-67
2021/05/11 09:05:09;;;;;;;4.68;3.70;;;15.30;99.90;;;;;;5096389;28;20046;-66
2021/05/11 09:24:04;;;;;;;2.67;1.23;;;16.00;98.70;;;;;;5101461;28;20092;-66
2021/05/11 09:26:52;;;;;;;3.88;1.35;;;16.10;97.70;;;;;;5093883;28;20072;-66
2021/05/11 09:29:41;;;;;;;3.17;1.08;;;16.20;97.70;;;;;;5101099;28;20950;-66
2021/05/11 10:47:02;;;;;;;3.00;0.70;;;17.50;91.10;;;;;;5066216;28;20041;-66
2021/05/11 10:49:37;;;;;;;2.13;0.63;;;17.40;90.60;;;;;;5051459;28;20057;-66
2021/05/11 10:52:28;;;;;;;3.08;0.80;;;17.30;85.70;;;;;;5077996;28;20399;-67
2021/05/11 11:00:26;;;;;;;1.95;0.50;;;18.00;92.30;;;;;;5099712;28;20040;-67
2021/05/11 11:03:20;;;;;;;3.17;0.77;;;18.50;84.40;;;;;;5101350;28;20155;-68
2021/05/11 11:05:52;;;;;;;2.13;0.55;;;18.90;82.90;;;;;;5099555;28;20096;-67
2021/05/11 11:08:31;;;;;;;0.50;0.20;;;19.00;90.40;;;;;;5103395;28;20471;-67
2021/05/11 11:11:20;;;;;;;1.20;0.30;;;19.10;80.70;;;;;;5093388;28;20031;-67
2021/05/11 11:13:51;;;;;;;2.45;0.70;;;19.20;76.60;;;;;;5097963;28;20101;-66
2021/05/11 11:16:17;;;;;;;0.93;0.35;;;18.90;81.40;;;;;;5095629;28;20524;-66
2021/05/11 11:18:44;;;;;;;0.80;0.30;;;19.00;85.70;;;;;;5100008;28;20462;-67
2021/05/11 11:23:48;;;;;;;2.10;0.40;;;18.90;87.40;;;;;;5100041;27;20066;-67
2021/05/11 11:26:48;;;;;;;2.60;0.47;;;18.80;89.90;;;;;;5094804;28;20035;-67
2021/05/11 11:29:14;;;;;;;0.82;0.30;;;18.70;88.50;;;;;;5099501;28;20055;-65
2021/05/11 11:31:42;;;;;;;1.98;0.40;;;18.50;87.30;;;;;;5093742;28;20407;-65
2021/05/11 11:34:16;;;;;;;0.57;0.30;;;18.50;87.90;;;;;;5106249;28;20084;-65
2021/05/11 11:36:58;;;;;;;1.00;0.40;;;18.40;84.40;;;;;;5101867;28;20433;-66
2021/05/11 11:39:27;;;;;;;0.95;0.30;;;18.30;82.10;;;;;;5104483;28;20192;-66
2021/05/11 11:41:56;;;;;;;1.25;0.50;;;18.00;84.30;;;;;;5095634;28;20039;-66
2021/05/11 11:44:25;;;;;;;2.65;1.70;;;17.90;87.00;;;;;;5106779;28;20045;-66
2021/05/11 11:47:05;;;;;;;1.40;0.47;;;17.80;86.60;;;;;;5101166;28;20664;-66
2021/05/11 11:49:34;;;;;;;1.08;0.43;;;17.60;85.90;;;;;;5104892;28;20035;-66
2021/05/11 11:52:07;;;;;;;1.95;0.45;;;17.50;86.20;;;;;;5097300;28;20048;-66
2021/05/11 12:00:11;;;;;;;0.80;0.40;;;17.30;87.20;;;;;;5098596;28;20142;-66
2021/05/11 12:02:37;;;;;;;1.80;0.40;;;17.10;89.50;;;;;;5096059;28;20054;-66
2021/05/11 12:05:13;;;;;;;1.65;0.50;;;17.10;91.20;;;;;;5097304;28;20571;-66
2021/05/11 12:10:25;;;;;;;0.68;0.50;;;17.10;91.60;;;;;;5097982;28;20044;-66
2021/05/11 12:12:52;;;;;;;1.40;0.90;;;17.10;91.50;;;;;;5095006;28;20108;-66
2021/05/11 12:15:20;;;;;;;1.85;0.90;;;17.20;91.80;;;;;;5099728;28;20036;-66
2021/05/11 12:18:16;;;;;;;1.20;0.90;;;17.10;91.40;;;;;;5097866;28;20092;-66
2021/05/11 12:20:44;;;;;;;1.65;1.15;;;17.10;90.40;;;;;;5100051;28;20047;-66
2021/05/11 12:23:14;;;;;;;1.27;1.17;;;16.90;91.10;;;;;;5094261;28;20044;-66
2021/05/11 12:25:41;;;;;;;17.67;14.60;;;16.80;91.80;;;;;;5102890;28;20078;-66
2021/05/11 12:28:06;;;;;;;2.50;2.20;;;16.70;92.30;;;;;;5095427;28;20039;-66
2021/05/11 12:30:37;;;;;;;4.20;2.90;;;16.60;91.30;;;;;;5100994;28;20085;-66
2021/05/11 12:33:04;;;;;;;2.50;2.30;;;16.40;91.30;;;;;;5093471;28;20402;-66
2021/05/11 12:35:30;;;;;;;2.30;2.10;;;16.40;92.90;;;;;;5103065;28;20126;-69
2021/05/11 12:38:01;;;;;;;2.30;1.90;;;16.40;92.80;;;;;;5101583;28;20050;-66
2021/05/11 12:40:49;;;;;;;1.73;1.63;;;16.30;91.50;;;;;;5090562;28;20437;-66
2021/05/11 12:43:39;;;;;;;2.30;2.10;;;16.30;91.50;;;;;;5098941;28;20036;-65
2021/05/11 12:46:24;;;;;;;3.50;1.88;;;16.40;92.20;;;;;;5087165;28;20075;-66
2021/05/11 12:48:57;;;;;;;;;;;16.40;91.00;;;;;;5095502;28;22480;-67
2021/05/11 12:51:37;;;;;;;2.85;1.63;;;16.20;90.50;;;;;;5101481;28;19920;-66
2021/05/11 12:54:27;;;;;;;2.08;1.58;;;16.20;92.80;;;;;;5058414;28;20044;-68
2021/05/11 12:59:37;;;;;;;2.33;1.55;;;16.10;92.70;;;;;;5054852;28;20055;-64
2021/05/11 13:25:10;;;;;;;2.55;1.52;;;16.40;94.50;;;;;;5064356;28;20041;-66
2021/05/11 13:26:27;;;;;;;2.58;1.70;;;16.40;93.30;;;;;;5055482;28;20041;-67
2021/05/11 13:28:57;;;;;;;3.85;1.90;;;16.50;94.10;;;;;;5061377;28;20037;-66
2021/05/11 13:34:00;;;;;;;2.22;1.42;;;16.60;92.60;;;;;;5061366;28;20036;-65
2021/05/11 13:36:26;;;;;;;3.72;2.03;;;16.50;92.80;;;;;;5057498;28;20037;-67
2021/05/11 13:38:52;;;;;;;2.20;2.00;;;16.40;92.30;;;;;;5061838;28;20045;-68
2021/05/11 13:41:18;;;;;;;4.55;2.00;;;16.30;93.50;;;;;;5057995;28;20037;-66
2021/05/11 13:43:44;;;;;;;3.08;1.20;;;16.20;93.60;;;;;;5060466;28;20477;-66
2021/05/11 13:46:10;;;;;;;1.20;0.98;;;16.10;93.10;;;;;;5055652;28;20043;-67
2021/05/11 13:48:38;;;;;;;1.90;1.10;;;16.10;94.00;;;;;;5061241;28;20449;-67
2021/05/11 13:51:11;;;;;;;2.42;1.20;;;15.80;93.40;;;;;;5054029;28;20041;-67
2021/05/11 13:53:38;;;;;;;3.25;1.55;;;15.80;94.20;;;;;;5096393;28;20403;-67
2021/05/11 13:56:15;;;;;;;2.67;1.23;;;15.70;94.50;;;;;;5102910;28;20114;-68
2021/05/11 14:04:10;;;;;;;1.17;1.00;;;15.50;95.50;;;;;;5101405;28;20048;-67
2021/05/11 14:06:36;;;;;;;1.77;0.85;;;15.40;95.50;;;;;;5098725;28;20039;-67
2021/05/11 14:09:02;;;;;;;1.58;0.52;;;15.40;95.90;;;;;;5098649;28;20372;-67
2021/05/11 14:11:31;;;;;;;0.80;0.70;;;15.40;95.70;;;;;;5101105;28;20069;-67
2021/05/11 14:13:57;;;;;;;17.30;3.33;;;15.30;95.50;;;;;;5095568;28;20056;-67
2021/05/11 14:16:22;;;;;;;0.80;0.65;;;15.30;96.10;;;;;;5100721;28;20027;-67
2021/05/11 14:18:48;;;;;;;2.22;1.00;;;15.30;96.20;;;;;;5092273;28;20047;-67
2021/05/11 14:21:14;;;;;;;2.95;1.00;;;15.30;96.00;;;;;;5104342;28;21802;-67
2021/05/11 14:23:41;;;;;;;1.80;0.98;;;15.20;96.20;;;;;;5095059;28;20120;-67
2021/05/11 14:26:07;;;;;;;1.98;0.90;;;15.30;96.60;;;;;;5097214;28;20166;-67
2021/05/11 14:28:33;;;;;;;3.50;0.88;;;15.20;96.50;;;;;;5091605;28;20458;-67
2021/05/11 14:30:59;;;;;;;1.63;1.13;;;15.20;96.20;;;;;;5081811;28;20113;-68
2021/05/11 14:33:25;;;;;;;1.23;0.90;;;15.20;96.50;;;;;;5099323;28;20114;-70
2021/05/11 14:35:50;;;;;;;1.20;0.70;;;15.30;96.40;;;;;;5102005;28;20452;-68
2021/05/11 14:38:16;;;;;;;1.70;0.60;;;15.40;96.20;;;;;;5095269;28;20163;-67
2021/05/11 14:40:42;;;;;;;1.05;0.60;;;15.40;95.50;;;;;;5102909;28;20440;-66
2021/05/11 14:43:08;;;;;;;1.15;0.60;;;15.40;95.10;;;;;;5098553;28;20031;-67
2021/05/11 14:45:34;;;;;;;3.00;0.90;;;15.40;95.50;;;;;;5099442;28;20036;-66
2021/05/11 14:48:00;;;;;;;1.17;0.60;;;15.50;96.00;;;;;;5102008;28;20036;-66
2021/05/11 14:50:26;;;;;;;2.30;0.57;;;15.60;95.60;;;;;;5091443;28;20491;-69
2021/05/11 14:52:55;;;;;;;2.50;0.80;;;15.70;95.20;;;;;;5095288;28;20379;-69
2021/05/11 14:55:25;;;;;;;2.70;1.00;;;15.70;95.30;;;;;;5094572;28;20257;-69
2021/05/11 14:57:52;;;;;;;1.00;0.60;;;15.70;95.10;;;;;;5097159;28;20241;-69
2021/05/11 15:00:18;;;;;;;2.08;0.60;;;15.80;95.60;;;;;;5091961;28;20092;-69
2021/05/11 15:02:44;;;;;;;1.10;0.65;;;15.90;94.90;;;;;;5097564;28;20054;-68
2021/05/11 15:05:10;;;;;;;1.90;0.60;;;15.90;95.20;;;;;;5093375;28;20035;-69
2021/05/11 15:07:37;;;;;;;0.98;0.43;;;15.70;93.50;;;;;;5100566;28;20055;-69
2021/05/11 15:10:03;;;;;;;2.28;0.57;;;15.60;94.00;;;;;;5091718;28;20040;-69
2021/05/11 15:12:29;;;;;;;2.83;0.50;;;15.40;94.20;;;;;;5104742;28;20065;-69
2021/05/11 15:14:55;;;;;;;1.38;0.60;;;15.30;94.20;;;;;;5098649;28;20040;-69
2021/05/11 15:19:48;;;;;;;5.43;3.25;;;15.30;93.80;;;;;;5093407;28;20131;-69
2021/05/11 15:22:14;;;;;;;2.20;0.57;;;15.20;93.80;;;;;;5103029;28;20423;-70
2021/05/11 15:24:40;;;;;;;2.95;0.90;;;15.20;94.60;;;;;;5092112;28;20115;-70
2021/05/11 15:27:05;;;;;;;0.90;0.52;;;15.20;94.70;;;;;;5097531;28;20114;-69
2021/05/11 15:29:31;;;;;;;3.28;0.65;;;15.20;95.10;;;;;;5081881;28;20467;-70
2021/05/11 15:31:57;;;;;;;0.70;0.52;;;15.20;94.60;;;;;;5095993;28;20044;-70
2021/05/11 15:34:24;;;;;;;1.75;0.60;;;15.20;94.50;;;;;;5087432;28;20075;-70
2021/05/11 15:36:50;;;;;;;1.17;0.52;;;15.10;94.20;;;;;;5092501;28;20118;-71
2021/05/11 15:39:16;;;;;;;2.40;0.90;;;15.00;94.80;;;;;;5104010;28;20514;-68
2021/05/11 15:41:42;;;;;;;3.08;1.00;;;15.10;94.60;;;;;;5092679;28;20082;-68
2021/05/11 15:44:08;;;;;;;5.35;1.30;;;15.10;94.60;;;;;;5101411;28;20067;-68
2021/05/11 15:46:35;;;;;;;2.08;0.60;;;15.00;94.20;;;;;;5095721;28;20054;-69
2021/05/11 15:49:00;;;;;;;1.88;0.75;;;15.00;94.60;;;;;;5101990;28;20036;-70
2021/05/11 15:51:26;;;;;;;1.75;0.98;;;14.90;94.70;;;;;;5094186;28;20376;-69
2021/05/11 15:53:52;;;;;;;2.00;1.02;;;15.00;95.00;;;;;;5099718;28;20056;-69
2021/05/11 15:56:18;;;;;;;1.75;0.73;;;15.00;95.30;;;;;;5095438;28;20055;-69
2021/05/11 15:58:44;;;;;;;2.05;1.00;;;15.00;94.90;;;;;;5102625;28;20477;-69
2021/05/11 16:01:10;;;;;;;1.70;0.88;;;15.00;94.80;;;;;;5088525;28;20334;-69
2021/05/11 16:03:36;;;;;;;3.03;0.85;;;14.90;94.70;;;;;;5100852;28;20044;-69
2021/05/11 16:06:02;;;;;;;2.25;0.90;;;15.00;94.70;;;;;;5103902;28;20057;-69
2021/05/11 16:08:29;;;;;;;8.93;6.53;;;14.90;94.80;;;;;;5097903;28;20063;-69
2021/05/11 16:10:56;;;;;;;3.67;1.65;;;14.90;94.80;;;;;;5097707;28;20032;-69
2021/05/11 16:13:22;;;;;;;3.30;1.05;;;14.90;95.10;;;;;;5097046;28;20471;-69
2021/05/11 16:15:49;;;;;;;2.45;1.05;;;14.90;95.60;;;;;;5099127;28;20391;-69
2021/05/11 16:18:15;;;;;;;1.75;1.40;;;14.80;95.70;;;;;;5093512;28;20440;-69
2021/05/11 16:20:41;;;;;;;3.72;1.17;;;14.80;95.30;;;;;;5097674;28;20036;-69
2021/05/11 16:23:07;;;;;;;2.55;1.38;;;14.70;95.50;;;;;;5092303;28;20078;-69
2021/05/11 16:25:34;;;;;;;4.63;1.17;;;14.60;95.70;;;;;;5094629;28;20471;-69
2021/05/11 16:28:04;;;;;;;5.25;1.60;;;14.50;95.30;;;;;;5092540;28;20042;-69
2021/05/11 16:30:30;;;;;;;4.57;1.70;;;14.30;95.60;;;;;;5096050;28;20143;-69
2021/05/11 16:32:56;;;;;;;10.02;6.97;;;14.20;96.40;;;;;;5101245;28;20074;-69
2021/05/11 16:35:22;;;;;;;80.32;67.60;;;14.10;96.70;;;;;;5094713;28;20072;-69
2021/05/11 16:37:47;;;;;;;3.28;2.00;;;14.10;96.90;;;;;;5092776;28;20047;-69
2021/05/11 16:40:14;;;;;;;2.78;1.55;;;14.10;97.10;;;;;;5099353;28;20036;-69
2021/05/11 16:42:41;;;;;;;3.33;1.60;;;14.20;97.40;;;;;;5099014;28;20040;-70
2021/05/11 16:45:12;;;;;;;4.38;1.92;;;14.10;97.20;;;;;;5105875;28;20036;-69
2021/05/11 16:47:55;;;;;;;7.60;1.90;;;14.20;97.20;;;;;;5098645;28;20047;-69
2021/05/11 16:50:28;;;;;;;5.53;1.77;;;14.10;97.00;;;;;;5101675;28;20062;-69
2021/05/11 16:52:58;;;;;;;2.20;1.93;;;14.10;96.90;;;;;;5101319;28;20051;-69
2021/05/11 16:55:24;;;;;;;4.60;2.15;;;14.00;97.00;;;;;;5100614;28;20040;-69
2021/05/11 16:57:51;;;;;;;3.97;2.10;;;13.90;97.20;;;;;;5103195;28;20399;-68
2021/05/11 17:00:20;;;;;;;3.65;2.30;;;13.90;97.40;;;;;;5096487;27;20042;-68
2021/05/11 17:02:46;;;;;;;3.85;2.25;;;13.90;97.50;;;;;;5097991;28;20038;-68
2021/05/11 17:05:12;;;;;;;5.40;2.30;;;13.90;97.60;;;;;;5100868;28;20258;-69
2021/05/11 17:07:38;;;;;;;5.63;2.30;;;13.90;97.80;;;;;;5087282;28;20036;-69
2021/05/11 17:10:05;;;;;;;5.90;3.20;;;13.90;97.90;;;;;;5094902;28;20055;-70
2021/05/11 17:12:31;;;;;;;4.78;2.20;;;14.00;98.20;;;;;;5099990;28;20044;-70
2021/05/11 17:14:57;;;;;;;2.90;2.22;;;14.00;98.30;;;;;;5093680;28;20039;-70
2021/05/11 17:17:23;;;;;;;6.95;2.50;;;14.00;98.30;;;;;;5100871;28;20034;-69
2021/05/11 17:19:49;;;;;;;7.53;2.42;;;14.00;98.30;;;;;;5094746;28;20082;-69